sensor_id;sensor_type;location;lat;lon;timestamp;P1;durP1;ratioP1;P2;durP2;ratioP2
3959;SDS011;1994;48.640;8.894;2022-09-09T00:04:30;2.17;;;1.63;;
3959;SDS011;1994;48.640;8.894;2022-09-09T00:10:09;1.43;;;1.33;;
3959;SDS011;1994;48.640;8.894;2022-09-09T00:15:48;3.43;;;1.67;;
3959;SDS011;1994;48.640;8.894;2022-09-09T00:24:54;3.20;;;1.80;;
3959;SDS011;1994;48.640;8.894;2022-09-09T00:30:22;6.37;;;1.87;;
3959;SDS011;1994;48.640;8.894;2022-09-09T00:32:54;2.97;;;1.63;;
3959;SDS011;1994;48.640;8.894;2022-09-09T00:35:35;4.67;;;2.10;;
3959;SDS011;1994;48.640;8.894;2022-09-09T00:38:16;8.23;;;1.70;;
3959;SDS011;1994;48.640;8.894;2022-09-09T00:41:20;7.00;;;1.73;;
3959;SDS011;1994;48.640;8.894;2022-09-09T00:47:09;4.63;;;1.97;;
3959;SDS011;1994;48.640;8.894;2022-09-09T00:56:32;1.67;;;1.57;;
3959;SDS011;1994;48.640;8.894;2022-09-09T00:59:33;2.30;;;2.10;;
3959;SDS011;1994;48.640;8.894;2022-09-09T01:02:16;2.90;;;1.53;;
3959;SDS011;1994;48.640;8.894;2022-09-09T01:05:02;4.60;;;1.60;;
3959;SDS011;1994;48.640;8.894;2022-09-09T01:07:38;4.13;;;1.73;;
3959;SDS011;1994;48.640;8.894;2022-09-09T01:10:13;3.40;;;2.00;;
3959;SDS011;1994;48.640;8.894;2022-09-09T01:13:29;1.50;;;1.40;;
3959;SDS011;1994;48.640;8.894;2022-09-09T01:16:00;13.73;;;2.00;;
3959;SDS011;1994;48.640;8.894;2022-09-09T01:18:33;2.23;;;2.03;;
3959;SDS011;1994;48.640;8.894;2022-09-09T01:24:19;6.70;;;1.90;;
3959;SDS011;1994;48.640;8.894;2022-09-09T01:26:59;5.57;;;1.77;;
3959;SDS011;1994;48.640;8.894;2022-09-09T01:29:28;1.37;;;1.27;;
3959;SDS011;1994;48.640;8.894;2022-09-09T01:31:55;1.57;;;1.37;;
3959;SDS011;1994;48.640;8.894;2022-09-09T01:34:48;4.30;;;1.77;;
3959;SDS011;1994;48.640;8.894;2022-09-09T01:37:16;6.90;;;2.07;;
3959;SDS011;1994;48.640;8.894;2022-09-09T01:39:42;5.80;;;1.73;;
3959;SDS011;1994;48.640;8.894;2022-09-09T01:42:11;2.37;;;1.90;;
3959;SDS011;1994;48.640;8.894;2022-09-09T01:44:39;4.60;;;1.63;;
3959;SDS011;1994;48.640;8.894;2022-09-09T01:47:05;1.57;;;1.47;;
3959;SDS011;1994;48.640;8.894;2022-09-09T01:49:32;2.50;;;1.63;;
3959;SDS011;1994;48.640;8.894;2022-09-09T01:51:58;1.40;;;1.27;;
3959;SDS011;1994;48.640;8.894;2022-09-09T01:54:25;3.73;;;1.53;;
3959;SDS011;1994;48.640;8.894;2022-09-09T02:00:09;2.17;;;1.53;;
3959;SDS011;1994;48.640;8.894;2022-09-09T02:02:41;2.50;;;1.10;;
3959;SDS011;1994;48.640;8.894;2022-09-09T02:05:38;3.93;;;1.53;;
3959;SDS011;1994;48.640;8.894;2022-09-09T02:08:20;2.17;;;1.17;;
3959;SDS011;1994;48.640;8.894;2022-09-09T02:11:05;2.80;;;1.50;;
3959;SDS011;1994;48.640;8.894;2022-09-09T02:13:46;3.00;;;1.60;;
3959;SDS011;1994;48.640;8.894;2022-09-09T02:18:52;6.20;;;1.27;;
3959;SDS011;1994;48.640;8.894;2022-09-09T02:21:39;1.83;;;1.60;;
3959;SDS011;1994;48.640;8.894;2022-09-09T02:24:09;6.20;;;1.60;;
3959;SDS011;1994;48.640;8.894;2022-09-09T02:26:39;2.50;;;1.37;;
3959;SDS011;1994;48.640;8.894;2022-09-09T02:29:13;3.73;;;1.37;;
3959;SDS011;1994;48.640;8.894;2022-09-09T02:31:46;5.07;;;1.90;;
3959;SDS011;1994;48.640;8.894;2022-09-09T02:34:14;1.60;;;1.43;;
3959;SDS011;1994;48.640;8.894;2022-09-09T02:36:46;1.97;;;1.57;;
3959;SDS011;1994;48.640;8.894;2022-09-09T02:39:13;1.67;;;1.57;;
3959;SDS011;1994;48.640;8.894;2022-09-09T02:41:39;6.17;;;1.57;;
3959;SDS011;1994;48.640;8.894;2022-09-09T02:44:13;2.90;;;1.30;;
3959;SDS011;1994;48.640;8.894;2022-09-09T02:46:58;2.80;;;1.30;;
3959;SDS011;1994;48.640;8.894;2022-09-09T02:50:03;1.77;;;1.10;;
3959;SDS011;1994;48.640;8.894;2022-09-09T02:55:46;2.80;;;1.33;;
3959;SDS011;1994;48.640;8.894;2022-09-09T02:58:19;6.60;;;1.50;;
3959;SDS011;1994;48.640;8.894;2022-09-09T03:00:46;1.40;;;1.30;;
3959;SDS011;1994;48.640;8.894;2022-09-09T03:03:15;1.43;;;1.30;;
3959;SDS011;1994;48.640;8.894;2022-09-09T03:05:43;1.80;;;1.70;;
3959;SDS011;1994;48.640;8.894;2022-09-09T03:08:09;3.43;;;1.87;;
3959;SDS011;1994;48.640;8.894;2022-09-09T03:10:36;2.03;;;1.30;;
3959;SDS011;1994;48.640;8.894;2022-09-09T03:13:02;1.27;;;1.13;;
3959;SDS011;1994;48.640;8.894;2022-09-09T03:15:30;2.30;;;1.70;;
3959;SDS011;1994;48.640;8.894;2022-09-09T03:17:57;4.50;;;1.60;;
3959;SDS011;1994;48.640;8.894;2022-09-09T03:20:24;5.00;;;1.50;;
3959;SDS011;1994;48.640;8.894;2022-09-09T03:22:53;1.63;;;1.53;;
3959;SDS011;1994;48.640;8.894;2022-09-09T03:25:20;4.37;;;1.97;;
3959;SDS011;1994;48.640;8.894;2022-09-09T03:27:48;3.10;;;1.40;;
3959;SDS011;1994;48.640;8.894;2022-09-09T03:30:15;4.40;;;1.63;;
3959;SDS011;1994;48.640;8.894;2022-09-09T03:32:41;2.00;;;1.50;;
3959;SDS011;1994;48.640;8.894;2022-09-09T03:35:07;2.77;;;1.40;;
3959;SDS011;1994;48.640;8.894;2022-09-09T03:37:33;2.93;;;2.50;;
3959;SDS011;1994;48.640;8.894;2022-09-09T03:39:59;1.87;;;1.77;;
3959;SDS011;1994;48.640;8.894;2022-09-09T03:42:25;2.57;;;1.90;;
3959;SDS011;1994;48.640;8.894;2022-09-09T03:44:52;1.80;;;1.50;;
3959;SDS011;1994;48.640;8.894;2022-09-09T03:47:18;3.23;;;1.63;;
3959;SDS011;1994;48.640;8.894;2022-09-09T03:49:46;3.73;;;1.87;;
3959;SDS011;1994;48.640;8.894;2022-09-09T03:52:13;1.63;;;1.13;;
3959;SDS011;1994;48.640;8.894;2022-09-09T03:54:40;2.70;;;1.20;;
3959;SDS011;1994;48.640;8.894;2022-09-09T03:57:08;2.50;;;1.80;;
3959;SDS011;1994;48.640;8.894;2022-09-09T03:59:35;3.73;;;1.93;;
3959;SDS011;1994;48.640;8.894;2022-09-09T04:02:01;4.70;;;2.07;;
3959;SDS011;1994;48.640;8.894;2022-09-09T04:04:27;3.27;;;1.40;;
3959;SDS011;1994;48.640;8.894;2022-09-09T04:06:53;5.87;;;1.60;;
3959;SDS011;1994;48.640;8.894;2022-09-09T04:09:19;2.13;;;1.90;;
3959;SDS011;1994;48.640;8.894;2022-09-09T04:11:44;1.47;;;1.30;;
3959;SDS011;1994;48.640;8.894;2022-09-09T04:14:11;1.83;;;1.50;;
3959;SDS011;1994;48.640;8.894;2022-09-09T04:16:37;3.87;;;1.73;;
3959;SDS011;1994;48.640;8.894;2022-09-09T04:19:04;2.13;;;1.70;;
3959;SDS011;1994;48.640;8.894;2022-09-09T04:21:31;1.50;;;1.40;;
3959;SDS011;1994;48.640;8.894;2022-09-09T04:23:57;4.37;;;1.70;;
3959;SDS011;1994;48.640;8.894;2022-09-09T04:26:23;4.20;;;1.80;;
3959;SDS011;1994;48.640;8.894;2022-09-09T04:28:49;2.13;;;1.93;;
3959;SDS011;1994;48.640;8.894;2022-09-09T04:31:24;3.17;;;1.73;;
3959;SDS011;1994;48.640;8.894;2022-09-09T04:33:50;4.53;;;2.00;;
3959;SDS011;1994;48.640;8.894;2022-09-09T04:36:16;3.13;;;1.87;;
3959;SDS011;1994;48.640;8.894;2022-09-09T04:38:46;1.70;;;1.47;;
3959;SDS011;1994;48.640;8.894;2022-09-09T04:41:13;3.33;;;1.87;;
3959;SDS011;1994;48.640;8.894;2022-09-09T04:43:40;4.50;;;2.40;;
3959;SDS011;1994;48.640;8.894;2022-09-09T04:46:06;2.00;;;1.80;;
3959;SDS011;1994;48.640;8.894;2022-09-09T04:48:31;2.63;;;1.77;;
3959;SDS011;1994;48.640;8.894;2022-09-09T04:50:58;4.47;;;1.97;;
3959;SDS011;1994;48.640;8.894;2022-09-09T04:53:30;2.83;;;1.90;;
3959;SDS011;1994;48.640;8.894;2022-09-09T04:56:03;4.57;;;1.70;;
3959;SDS011;1994;48.640;8.894;2022-09-09T04:58:38;4.33;;;2.10;;
3959;SDS011;1994;48.640;8.894;2022-09-09T05:01:07;3.40;;;1.87;;
3959;SDS011;1994;48.640;8.894;2022-09-09T05:03:46;5.83;;;1.73;;
3959;SDS011;1994;48.640;8.894;2022-09-09T05:06:13;3.43;;;1.77;;
3959;SDS011;1994;48.640;8.894;2022-09-09T05:08:42;3.30;;;1.90;;
3959;SDS011;1994;48.640;8.894;2022-09-09T05:11:19;2.73;;;1.97;;
3959;SDS011;1994;48.640;8.894;2022-09-09T05:13:50;3.40;;;2.10;;
3959;SDS011;1994;48.640;8.894;2022-09-09T05:16:17;6.53;;;2.00;;
3959;SDS011;1994;48.640;8.894;2022-09-09T05:18:44;2.47;;;2.00;;
3959;SDS011;1994;48.640;8.894;2022-09-09T05:21:14;3.40;;;1.90;;
3959;SDS011;1994;48.640;8.894;2022-09-09T05:23:41;2.13;;;1.93;;
3959;SDS011;1994;48.640;8.894;2022-09-09T05:26:08;3.23;;;1.80;;
3959;SDS011;1994;48.640;8.894;2022-09-09T05:28:38;5.50;;;2.63;;
3959;SDS011;1994;48.640;8.894;2022-09-09T05:31:05;2.97;;;2.23;;
3959;SDS011;1994;48.640;8.894;2022-09-09T05:33:33;4.40;;;2.20;;
3959;SDS011;1994;48.640;8.894;2022-09-09T05:36:02;3.10;;;2.40;;
3959;SDS011;1994;48.640;8.894;2022-09-09T05:38:33;2.60;;;1.90;;
3959;SDS011;1994;48.640;8.894;2022-09-09T05:41:03;10.53;;;1.77;;
3959;SDS011;1994;48.640;8.894;2022-09-09T05:43:32;1.63;;;1.40;;
3959;SDS011;1994;48.640;8.894;2022-09-09T05:46:04;3.47;;;1.80;;
3959;SDS011;1994;48.640;8.894;2022-09-09T05:48:39;1.90;;;1.50;;
3959;SDS011;1994;48.640;8.894;2022-09-09T05:51:11;2.80;;;2.53;;
3959;SDS011;1994;48.640;8.894;2022-09-09T05:53:42;2.70;;;1.70;;
3959;SDS011;1994;48.640;8.894;2022-09-09T05:56:19;11.07;;;2.83;;
3959;SDS011;1994;48.640;8.894;2022-09-09T05:58:49;6.47;;;2.40;;
3959;SDS011;1994;48.640;8.894;2022-09-09T06:01:23;3.40;;;2.20;;
3959;SDS011;1994;48.640;8.894;2022-09-09T06:03:52;6.77;;;2.10;;
3959;SDS011;1994;48.640;8.894;2022-09-09T06:06:19;2.33;;;1.70;;
3959;SDS011;1994;48.640;8.894;2022-09-09T06:08:48;3.70;;;1.80;;
3959;SDS011;1994;48.640;8.894;2022-09-09T06:11:18;7.63;;;1.77;;
3959;SDS011;1994;48.640;8.894;2022-09-09T06:13:46;2.10;;;1.90;;
3959;SDS011;1994;48.640;8.894;2022-09-09T06:16:18;2.60;;;1.93;;
3959;SDS011;1994;48.640;8.894;2022-09-09T06:18:45;4.50;;;2.10;;
3959;SDS011;1994;48.640;8.894;2022-09-09T06:21:16;2.83;;;2.03;;
3959;SDS011;1994;48.640;8.894;2022-09-09T06:23:49;3.00;;;2.07;;
3959;SDS011;1994;48.640;8.894;2022-09-09T06:26:19;4.83;;;1.93;;
3959;SDS011;1994;48.640;8.894;2022-09-09T06:28:49;3.73;;;1.97;;
3959;SDS011;1994;48.640;8.894;2022-09-09T06:31:18;10.30;;;2.10;;
3959;SDS011;1994;48.640;8.894;2022-09-09T06:33:49;13.83;;;2.13;;
3959;SDS011;1994;48.640;8.894;2022-09-09T06:36:17;1.80;;;1.70;;
3959;SDS011;1994;48.640;8.894;2022-09-09T06:38:45;2.60;;;1.90;;
3959;SDS011;1994;48.640;8.894;2022-09-09T06:41:12;3.33;;;1.97;;
3959;SDS011;1994;48.640;8.894;2022-09-09T06:43:42;2.33;;;2.07;;
3959;SDS011;1994;48.640;8.894;2022-09-09T06:46:12;7.13;;;2.60;;
3959;SDS011;1994;48.640;8.894;2022-09-09T06:48:39;3.40;;;1.73;;
3959;SDS011;1994;48.640;8.894;2022-09-09T06:51:16;2.23;;;2.03;;
3959;SDS011;1994;48.640;8.894;2022-09-09T06:53:44;2.50;;;2.07;;
3959;SDS011;1994;48.640;8.894;2022-09-09T06:59:08;13.10;;;3.00;;
3959;SDS011;1994;48.640;8.894;2022-09-09T07:01:38;4.87;;;1.90;;
3959;SDS011;1994;48.640;8.894;2022-09-09T07:04:06;6.70;;;2.13;;
3959;SDS011;1994;48.640;8.894;2022-09-09T07:06:34;8.50;;;3.93;;
3959;SDS011;1994;48.640;8.894;2022-09-09T07:09:04;2.90;;;2.10;;
3959;SDS011;1994;48.640;8.894;2022-09-09T07:11:37;3.03;;;2.37;;
3959;SDS011;1994;48.640;8.894;2022-09-09T07:14:07;2.93;;;2.40;;
3959;SDS011;1994;48.640;8.894;2022-09-09T07:16:33;2.30;;;2.10;;
3959;SDS011;1994;48.640;8.894;2022-09-09T07:19:02;2.97;;;1.80;;
3959;SDS011;1994;48.640;8.894;2022-09-09T07:21:29;5.07;;;2.27;;
3959;SDS011;1994;48.640;8.894;2022-09-09T07:23:56;2.77;;;2.57;;
3959;SDS011;1994;48.640;8.894;2022-09-09T07:26:23;2.57;;;2.37;;
3959;SDS011;1994;48.640;8.894;2022-09-09T07:28:52;5.23;;;2.30;;
3959;SDS011;1994;48.640;8.894;2022-09-09T07:31:22;2.30;;;2.00;;
3959;SDS011;1994;48.640;8.894;2022-09-09T07:33:51;3.80;;;1.80;;
3959;SDS011;1994;48.640;8.894;2022-09-09T07:36:19;5.70;;;2.13;;
3959;SDS011;1994;48.640;8.894;2022-09-09T07:39:08;1.90;;;1.80;;
3959;SDS011;1994;48.640;8.894;2022-09-09T07:41:37;4.73;;;2.50;;
3959;SDS011;1994;48.640;8.894;2022-09-09T07:44:10;5.40;;;2.00;;
3959;SDS011;1994;48.640;8.894;2022-09-09T07:46:39;4.13;;;1.90;;
3959;SDS011;1994;48.640;8.894;2022-09-09T07:49:06;7.93;;;1.90;;
3959;SDS011;1994;48.640;8.894;2022-09-09T07:51:34;11.60;;;2.40;;
3959;SDS011;1994;48.640;8.894;2022-09-09T07:54:05;2.90;;;1.40;;
3959;SDS011;1994;48.640;8.894;2022-09-09T07:56:34;1.70;;;1.60;;
3959;SDS011;1994;48.640;8.894;2022-09-09T07:59:02;4.33;;;1.97;;
3959;SDS011;1994;48.640;8.894;2022-09-09T08:01:35;3.20;;;2.03;;
3959;SDS011;1994;48.640;8.894;2022-09-09T08:04:11;2.20;;;1.43;;
3959;SDS011;1994;48.640;8.894;2022-09-09T08:06:49;2.10;;;1.70;;
3959;SDS011;1994;48.640;8.894;2022-09-09T08:09:19;3.83;;;2.03;;
3959;SDS011;1994;48.640;8.894;2022-09-09T08:11:46;4.63;;;2.30;;
3959;SDS011;1994;48.640;8.894;2022-09-09T08:14:12;4.10;;;2.07;;
3959;SDS011;1994;48.640;8.894;2022-09-09T08:16:40;2.70;;;1.47;;
3959;SDS011;1994;48.640;8.894;2022-09-09T08:19:08;3.53;;;2.00;;
3959;SDS011;1994;48.640;8.894;2022-09-09T08:21:35;1.90;;;1.70;;
3959;SDS011;1994;48.640;8.894;2022-09-09T08:24:05;2.07;;;1.40;;
3959;SDS011;1994;48.640;8.894;2022-09-09T08:26:36;4.63;;;2.00;;
3959;SDS011;1994;48.640;8.894;2022-09-09T08:29:08;3.83;;;1.77;;
3959;SDS011;1994;48.640;8.894;2022-09-09T08:31:36;2.13;;;1.70;;
3959;SDS011;1994;48.640;8.894;2022-09-09T08:34:08;5.43;;;1.97;;
3959;SDS011;1994;48.640;8.894;2022-09-09T08:36:39;4.30;;;2.30;;
3959;SDS011;1994;48.640;8.894;2022-09-09T08:39:07;2.23;;;1.50;;
3959;SDS011;1994;48.640;8.894;2022-09-09T08:41:41;2.60;;;1.77;;
3959;SDS011;1994;48.640;8.894;2022-09-09T08:55:38;3.50;;;1.60;;
3959;SDS011;1994;48.640;8.894;2022-09-09T08:58:19;3.70;;;2.27;;
3959;SDS011;1994;48.640;8.894;2022-09-09T09:12:41;2.53;;;1.53;;
3959;SDS011;1994;48.640;8.894;2022-09-09T09:15:11;3.07;;;1.63;;
3959;SDS011;1994;48.640;8.894;2022-09-09T09:17:49;5.03;;;1.40;;
3959;SDS011;1994;48.640;8.894;2022-09-09T09:20:22;6.00;;;1.73;;
3959;SDS011;1994;48.640;8.894;2022-09-09T09:23:06;2.93;;;2.07;;
3959;SDS011;1994;48.640;8.894;2022-09-09T09:25:45;1.57;;;1.43;;
3959;SDS011;1994;48.640;8.894;2022-09-09T09:28:18;4.30;;;1.87;;
3959;SDS011;1994;48.640;8.894;2022-09-09T09:33:41;3.70;;;1.50;;
3959;SDS011;1994;48.640;8.894;2022-09-09T09:36:15;4.00;;;1.77;;
3959;SDS011;1994;48.640;8.894;2022-09-09T09:38:55;1.90;;;1.63;;
3959;SDS011;1994;48.640;8.894;2022-09-09T09:41:41;7.30;;;2.00;;
3959;SDS011;1994;48.640;8.894;2022-09-09T09:47:11;3.30;;;1.60;;
3959;SDS011;1994;48.640;8.894;2022-09-09T09:49:53;2.90;;;1.37;;
3959;SDS011;1994;48.640;8.894;2022-09-09T09:52:33;2.70;;;1.87;;
3959;SDS011;1994;48.640;8.894;2022-09-09T09:55:02;5.47;;;1.90;;
3959;SDS011;1994;48.640;8.894;2022-09-09T09:57:32;3.23;;;1.63;;
3959;SDS011;1994;48.640;8.894;2022-09-09T10:00:15;7.00;;;1.50;;
3959;SDS011;1994;48.640;8.894;2022-09-09T10:02:46;3.43;;;1.50;;
3959;SDS011;1994;48.640;8.894;2022-09-09T10:07:47;2.97;;;2.00;;
3959;SDS011;1994;48.640;8.894;2022-09-09T10:10:57;3.17;;;1.67;;
3959;SDS011;1994;48.640;8.894;2022-09-09T10:14:02;2.00;;;1.23;;
3959;SDS011;1994;48.640;8.894;2022-09-09T10:19:21;2.03;;;1.43;;
3959;SDS011;1994;48.640;8.894;2022-09-09T10:30:33;3.17;;;1.50;;
3959;SDS011;1994;48.640;8.894;2022-09-09T10:33:32;1.80;;;1.20;;
3959;SDS011;1994;48.640;8.894;2022-09-09T10:36:46;3.30;;;1.70;;
3959;SDS011;1994;48.640;8.894;2022-09-09T10:40:00;2.23;;;1.30;;
3959;SDS011;1994;48.640;8.894;2022-09-09T10:42:14;2.40;;;1.27;;
3959;SDS011;1994;48.640;8.894;2022-09-09T10:44:47;2.07;;;1.60;;
3959;SDS011;1994;48.640;8.894;2022-09-09T10:50:46;2.40;;;1.30;;
3959;SDS011;1994;48.640;8.894;2022-09-09T10:56:29;4.60;;;1.70;;
3959;SDS011;1994;48.640;8.894;2022-09-09T10:59:00;1.73;;;1.07;;
3959;SDS011;1994;48.640;8.894;2022-09-09T11:01:43;2.20;;;1.30;;
3959;SDS011;1994;48.640;8.894;2022-09-09T11:04:38;5.10;;;1.47;;
3959;SDS011;1994;48.640;8.894;2022-09-09T11:07:11;1.90;;;1.10;;
3959;SDS011;1994;48.640;8.894;2022-09-09T11:09:53;2.13;;;1.20;;
3959;SDS011;1994;48.640;8.894;2022-09-09T11:12:26;1.57;;;1.00;;
3959;SDS011;1994;48.640;8.894;2022-09-09T11:14:57;1.57;;;0.90;;
3959;SDS011;1994;48.640;8.894;2022-09-09T11:17:44;1.10;;;0.90;;
3959;SDS011;1994;48.640;8.894;2022-09-09T11:20:15;1.53;;;0.83;;
3959;SDS011;1994;48.640;8.894;2022-09-09T11:22:48;2.00;;;1.00;;
3959;SDS011;1994;48.640;8.894;2022-09-09T11:25:32;0.87;;;0.70;;
3959;SDS011;1994;48.640;8.894;2022-09-09T11:28:17;1.07;;;0.73;;
3959;SDS011;1994;48.640;8.894;2022-09-09T11:40:34;2.70;;;0.90;;
3959;SDS011;1994;48.640;8.894;2022-09-09T11:43:10;0.80;;;0.80;;
3959;SDS011;1994;48.640;8.894;2022-09-09T11:45:40;0.73;;;0.73;;
3959;SDS011;1994;48.640;8.894;2022-09-09T11:48:22;0.80;;;0.80;;
3959;SDS011;1994;48.640;8.894;2022-09-09T11:50:58;0.90;;;0.80;;
3959;SDS011;1994;48.640;8.894;2022-09-09T11:53:34;1.93;;;1.20;;
3959;SDS011;1994;48.640;8.894;2022-09-09T11:56:22;1.30;;;0.90;;
3959;SDS011;1994;48.640;8.894;2022-09-09T11:58:57;0.80;;;0.80;;
3959;SDS011;1994;48.640;8.894;2022-09-09T12:06:56;4.20;;;1.20;;
3959;SDS011;1994;48.640;8.894;2022-09-09T12:17:24;3.17;;;0.90;;
3959;SDS011;1994;48.640;8.894;2022-09-09T12:28:49;7.20;;;1.10;;
3959;SDS011;1994;48.640;8.894;2022-09-09T12:34:40;1.57;;;1.30;;
3959;SDS011;1994;48.640;8.894;2022-09-09T12:40:15;3.37;;;0.90;;
3959;SDS011;1994;48.640;8.894;2022-09-09T12:42:45;3.13;;;1.20;;
3959;SDS011;1994;48.640;8.894;2022-09-09T12:45:17;2.90;;;1.50;;
3959;SDS011;1994;48.640;8.894;2022-09-09T12:47:53;2.17;;;1.10;;
3959;SDS011;1994;48.640;8.894;2022-09-09T12:50:46;1.10;;;0.83;;
3959;SDS011;1994;48.640;8.894;2022-09-09T12:53:23;1.10;;;1.00;;
3959;SDS011;1994;48.640;8.894;2022-09-09T12:56:05;9.33;;;2.20;;
3959;SDS011;1994;48.640;8.894;2022-09-09T12:58:44;2.07;;;1.17;;
3959;SDS011;1994;48.640;8.894;2022-09-09T13:01:23;1.10;;;1.00;;
3959;SDS011;1994;48.640;8.894;2022-09-09T13:03:56;1.13;;;0.90;;
3959;SDS011;1994;48.640;8.894;2022-09-09T13:06:26;2.30;;;1.00;;
3959;SDS011;1994;48.640;8.894;2022-09-09T13:08:59;3.23;;;1.00;;
3959;SDS011;1994;48.640;8.894;2022-09-09T13:11:39;1.20;;;1.00;;
3959;SDS011;1994;48.640;8.894;2022-09-09T13:14:14;1.20;;;0.90;;
3959;SDS011;1994;48.640;8.894;2022-09-09T13:16:54;1.10;;;1.00;;
3959;SDS011;1994;48.640;8.894;2022-09-09T13:19:22;4.00;;;1.03;;
3959;SDS011;1994;48.640;8.894;2022-09-09T13:21:52;0.87;;;0.80;;
3959;SDS011;1994;48.640;8.894;2022-09-09T13:24:31;1.70;;;1.60;;
3959;SDS011;1994;48.640;8.894;2022-09-09T13:27:03;1.10;;;1.00;;
3959;SDS011;1994;48.640;8.894;2022-09-09T13:29:52;1.10;;;0.80;;
3959;SDS011;1994;48.640;8.894;2022-09-09T13:32:22;0.90;;;0.80;;
3959;SDS011;1994;48.640;8.894;2022-09-09T13:34:52;3.67;;;1.17;;
3959;SDS011;1994;48.640;8.894;2022-09-09T13:37:26;2.87;;;1.20;;
3959;SDS011;1994;48.640;8.894;2022-09-09T13:40:03;1.20;;;0.90;;
3959;SDS011;1994;48.640;8.894;2022-09-09T13:42:37;2.33;;;1.03;;
3959;SDS011;1994;48.640;8.894;2022-09-09T13:45:14;1.73;;;1.10;;
3959;SDS011;1994;48.640;8.894;2022-09-09T13:47:45;2.00;;;0.80;;
3959;SDS011;1994;48.640;8.894;2022-09-09T13:50:22;1.00;;;0.90;;
3959;SDS011;1994;48.640;8.894;2022-09-09T13:52:55;1.90;;;0.90;;
3959;SDS011;1994;48.640;8.894;2022-09-09T13:55:24;1.87;;;1.10;;
3959;SDS011;1994;48.640;8.894;2022-09-09T13:57:53;1.10;;;1.00;;
3959;SDS011;1994;48.640;8.894;2022-09-09T14:00:23;1.10;;;0.93;;
3959;SDS011;1994;48.640;8.894;2022-09-09T14:02:49;1.00;;;0.80;;
3959;SDS011;1994;48.640;8.894;2022-09-09T14:05:19;1.20;;;1.10;;
3959;SDS011;1994;48.640;8.894;2022-09-09T14:07:45;2.90;;;1.10;;
3959;SDS011;1994;48.640;8.894;2022-09-09T14:10:12;1.40;;;0.80;;
3959;SDS011;1994;48.640;8.894;2022-09-09T14:12:38;1.97;;;1.53;;
3959;SDS011;1994;48.640;8.894;2022-09-09T14:15:04;1.00;;;0.80;;
3959;SDS011;1994;48.640;8.894;2022-09-09T14:17:31;2.50;;;0.80;;
3959;SDS011;1994;48.640;8.894;2022-09-09T14:19:58;2.97;;;0.93;;
3959;SDS011;1994;48.640;8.894;2022-09-09T14:22:25;1.10;;;0.90;;
3959;SDS011;1994;48.640;8.894;2022-09-09T14:24:50;1.10;;;0.80;;
3959;SDS011;1994;48.640;8.894;2022-09-09T14:27:16;1.67;;;0.80;;
3959;SDS011;1994;48.640;8.894;2022-09-09T14:29:43;1.50;;;1.00;;
3959;SDS011;1994;48.640;8.894;2022-09-09T14:32:09;1.53;;;0.80;;
3959;SDS011;1994;48.640;8.894;2022-09-09T14:34:36;1.40;;;0.87;;
3959;SDS011;1994;48.640;8.894;2022-09-09T14:37:02;5.20;;;3.10;;
3959;SDS011;1994;48.640;8.894;2022-09-09T14:39:28;1.80;;;1.30;;
3959;SDS011;1994;48.640;8.894;2022-09-09T14:41:53;1.77;;;1.00;;
3959;SDS011;1994;48.640;8.894;2022-09-09T14:44:20;2.00;;;0.90;;
3959;SDS011;1994;48.640;8.894;2022-09-09T14:46:46;1.10;;;1.00;;
3959;SDS011;1994;48.640;8.894;2022-09-09T14:49:15;1.33;;;1.23;;
3959;SDS011;1994;48.640;8.894;2022-09-09T14:51:40;3.70;;;0.90;;
3959;SDS011;1994;48.640;8.894;2022-09-09T14:54:06;4.53;;;1.00;;
3959;SDS011;1994;48.640;8.894;2022-09-09T14:56:33;3.47;;;1.10;;
3959;SDS011;1994;48.640;8.894;2022-09-09T14:58:59;2.27;;;0.97;;
3959;SDS011;1994;48.640;8.894;2022-09-09T15:01:27;1.33;;;0.90;;
3959;SDS011;1994;48.640;8.894;2022-09-09T15:06:30;1.33;;;1.13;;
3959;SDS011;1994;48.640;8.894;2022-09-09T15:08:59;1.27;;;0.87;;
3959;SDS011;1994;48.640;8.894;2022-09-09T15:11:26;5.17;;;1.10;;
3959;SDS011;1994;48.640;8.894;2022-09-09T15:13:55;2.83;;;1.10;;
3959;SDS011;1994;48.640;8.894;2022-09-09T15:16:23;3.47;;;1.10;;
3959;SDS011;1994;48.640;8.894;2022-09-09T15:18:52;3.43;;;0.90;;
3959;SDS011;1994;48.640;8.894;2022-09-09T15:21:22;1.37;;;0.87;;
3959;SDS011;1994;48.640;8.894;2022-09-09T15:23:50;2.10;;;1.17;;
3959;SDS011;1994;48.640;8.894;2022-09-09T15:26:17;1.07;;;0.90;;
3959;SDS011;1994;48.640;8.894;2022-09-09T15:28:44;0.70;;;0.70;;
3959;SDS011;1994;48.640;8.894;2022-09-09T15:31:16;2.30;;;0.90;;
3959;SDS011;1994;48.640;8.894;2022-09-09T15:33:51;7.13;;;1.10;;
3959;SDS011;1994;48.640;8.894;2022-09-09T15:39:13;3.70;;;1.13;;
3959;SDS011;1994;48.640;8.894;2022-09-09T15:41:43;1.00;;;0.90;;
3959;SDS011;1994;48.640;8.894;2022-09-09T15:44:10;1.93;;;0.90;;
3959;SDS011;1994;48.640;8.894;2022-09-09T15:46:46;1.00;;;0.90;;
3959;SDS011;1994;48.640;8.894;2022-09-09T15:49:15;1.20;;;1.10;;
3959;SDS011;1994;48.640;8.894;2022-09-09T15:51:59;4.37;;;1.00;;
3959;SDS011;1994;48.640;8.894;2022-09-09T15:54:30;1.83;;;1.10;;
3959;SDS011;1994;48.640;8.894;2022-09-09T15:57:04;5.17;;;1.30;;
3959;SDS011;1994;48.640;8.894;2022-09-09T15:59:33;7.03;;;1.00;;
3959;SDS011;1994;48.640;8.894;2022-09-09T16:01:59;2.50;;;0.90;;
3959;SDS011;1994;48.640;8.894;2022-09-09T16:04:25;1.17;;;0.97;;
3959;SDS011;1994;48.640;8.894;2022-09-09T16:07:00;1.50;;;1.10;;
3959;SDS011;1994;48.640;8.894;2022-09-09T16:09:29;1.33;;;1.00;;
3959;SDS011;1994;48.640;8.894;2022-09-09T16:11:59;1.37;;;0.73;;
3959;SDS011;1994;48.640;8.894;2022-09-09T16:14:27;0.80;;;0.70;;
3959;SDS011;1994;48.640;8.894;2022-09-09T16:16:58;0.90;;;0.70;;
3959;SDS011;1994;48.640;8.894;2022-09-09T16:19:25;0.70;;;0.60;;
3959;SDS011;1994;48.640;8.894;2022-09-09T16:21:50;2.33;;;0.80;;
3959;SDS011;1994;48.640;8.894;2022-09-09T16:24:17;1.67;;;0.70;;
3959;SDS011;1994;48.640;8.894;2022-09-09T16:26:46;1.10;;;0.63;;
3959;SDS011;1994;48.640;8.894;2022-09-09T16:29:14;2.03;;;0.70;;
3959;SDS011;1994;48.640;8.894;2022-09-09T16:31:42;1.00;;;0.80;;
3959;SDS011;1994;48.640;8.894;2022-09-09T16:34:10;0.90;;;0.70;;
3959;SDS011;1994;48.640;8.894;2022-09-09T16:36:37;2.40;;;0.90;;
3959;SDS011;1994;48.640;8.894;2022-09-09T16:39:06;1.53;;;0.80;;
3959;SDS011;1994;48.640;8.894;2022-09-09T16:41:42;0.70;;;0.60;;
3959;SDS011;1994;48.640;8.894;2022-09-09T16:44:10;1.57;;;0.80;;
3959;SDS011;1994;48.640;8.894;2022-09-09T16:46:40;0.70;;;0.60;;
3959;SDS011;1994;48.640;8.894;2022-09-09T16:49:08;1.40;;;0.93;;
3959;SDS011;1994;48.640;8.894;2022-09-09T16:51:38;3.03;;;0.73;;
3959;SDS011;1994;48.640;8.894;2022-09-09T16:54:09;2.30;;;0.80;;
3959;SDS011;1994;48.640;8.894;2022-09-09T16:56:38;0.70;;;0.70;;
3959;SDS011;1994;48.640;8.894;2022-09-09T16:59:12;1.00;;;0.80;;
3959;SDS011;1994;48.640;8.894;2022-09-09T17:01:41;0.80;;;0.70;;
3959;SDS011;1994;48.640;8.894;2022-09-09T17:04:16;1.57;;;0.70;;
3959;SDS011;1994;48.640;8.894;2022-09-09T17:06:49;0.70;;;0.70;;
3959;SDS011;1994;48.640;8.894;2022-09-09T17:09:17;2.40;;;0.70;;
3959;SDS011;1994;48.640;8.894;2022-09-09T17:11:44;0.90;;;0.80;;
3959;SDS011;1994;48.640;8.894;2022-09-09T17:14:14;1.40;;;0.80;;
3959;SDS011;1994;48.640;8.894;2022-09-09T17:16:42;0.90;;;0.90;;
3959;SDS011;1994;48.640;8.894;2022-09-09T17:19:08;1.77;;;0.97;;
3959;SDS011;1994;48.640;8.894;2022-09-09T17:21:35;0.80;;;0.77;;
3959;SDS011;1994;48.640;8.894;2022-09-09T17:24:02;0.80;;;0.70;;
3959;SDS011;1994;48.640;8.894;2022-09-09T17:26:29;1.53;;;0.90;;
3959;SDS011;1994;48.640;8.894;2022-09-09T17:28:57;0.80;;;0.70;;
3959;SDS011;1994;48.640;8.894;2022-09-09T17:31:26;0.80;;;0.70;;
3959;SDS011;1994;48.640;8.894;2022-09-09T17:33:53;1.40;;;0.97;;
3959;SDS011;1994;48.640;8.894;2022-09-09T17:36:24;0.97;;;0.80;;
3959;SDS011;1994;48.640;8.894;2022-09-09T17:38:57;1.20;;;1.00;;
3959;SDS011;1994;48.640;8.894;2022-09-09T17:41:26;2.80;;;1.10;;
3959;SDS011;1994;48.640;8.894;2022-09-09T17:43:57;0.80;;;0.80;;
3959;SDS011;1994;48.640;8.894;2022-09-09T17:46:30;0.90;;;0.80;;
3959;SDS011;1994;48.640;8.894;2022-09-09T17:49:02;1.23;;;1.03;;
3959;SDS011;1994;48.640;8.894;2022-09-09T17:51:31;3.00;;;1.00;;
3959;SDS011;1994;48.640;8.894;2022-09-09T17:53:59;1.10;;;0.90;;
3959;SDS011;1994;48.640;8.894;2022-09-09T17:56:30;6.90;;;1.03;;
3959;SDS011;1994;48.640;8.894;2022-09-09T17:58:57;1.20;;;1.00;;
3959;SDS011;1994;48.640;8.894;2022-09-09T18:01:29;0.97;;;0.80;;